Time;durP1;ratioP1;P1;durP2;ratioP2;P2;SDS_P1;SDS_P2;PMS_P1;PMS_P2;Temp;Humidity;BMP_temperature;BMP_pressure;BME280_temperature;BME280_humidity;BME280_pressure;Samples;Min_cycle;Max_cycle;Signal;HPM_P1;HPM_P2
2022/05/11 00:00:16;;;;;;;;;;;;;;;;;;5017700;28;19920;-71
2022/05/11 00:02:42;;;;;;;;;;;;;;;;;;5052133;28;20106;-71
2022/05/11 00:05:08;;;;;;;;;;;;;;;;;;5033802;28;19925;-71
2022/05/11 00:07:34;;;;;;;;;;;;;;;;;;5052093;28;19939;-71
2022/05/11 00:10:00;;;;;;;;;;;;;;;;;;5034177;28;19920;-71
2022/05/11 00:12:26;;;;;;;;;;;;;;;;;;5051735;28;19943;-71
2022/05/11 00:14:52;;;;;;;;;;;;;;;;;;5017695;28;20008;-71
2022/05/11 00:17:18;;;;;;;;;;;;;;;;;;5052506;28;19956;-71
2022/05/11 00:19:44;;;;;;;;;;;;;;;;;;5033557;28;20059;-71
2022/05/11 00:22:10;;;;;;;;;;;;;;;;;;5052443;28;19917;-71
2022/05/11 00:24:36;;;;;;;;;;;;;;;;;;5052048;28;19987;-71
2022/05/11 00:27:03;;;;;;;;;;;;;;;;;;5036056;28;19924;-71
2022/05/11 00:29:30;;;;;;;;;;;;;;;;;;5030828;28;19917;-71
2022/05/11 00:31:56;;;;;;;;;;;;;;;;;;5032403;28;20008;-71
2022/05/11 00:34:22;;;;;;;;;;;;;;;;;;5032217;28;20000;-71
2022/05/11 00:36:48;;;;;;;;;;;;;;;;;;5014200;28;19960;-71
2022/05/11 00:39:14;;;;;;;;;;;;;;;;;;5030977;28;19955;-71
2022/05/11 00:41:40;;;;;;;;;;;;;;;;;;5014378;28;19917;-71
2022/05/11 00:44:09;;;;;;;;;;;;;;;;;;5031912;28;19940;-71
2022/05/11 00:46:35;;;;;;;;;;;;;;;;;;5030797;28;19947;-72
2022/05/11 00:51:46;;;;;;;;;;;;;;;;;;5033005;28;20322;-72
2022/05/11 00:54:13;;;;;;;;;;;;;;;;;;5035690;28;20007;-72
2022/05/11 00:56:39;;;;;;;;;;;;;;;;;;5034909;28;19927;-72
2022/05/11 00:59:05;;;;;;;;;;;;;;;;;;5034292;28;19921;-72
2022/05/11 01:01:31;;;;;;;;;;;;;;;;;;5034557;28;19917;-72
2022/05/11 01:03:57;;;;;;;;;;;;;;;;;;5035406;28;19939;-72
2022/05/11 01:06:23;;;;;;;;;;;;;;;;;;5034999;28;19917;-72
2022/05/11 01:08:49;;;;;;;;;;;;;;;;;;5034144;28;19971;-72
2022/05/11 01:11:15;;;;;;;;;;;;;;;;;;5034986;28;19921;-72
2022/05/11 01:13:41;;;;;;;;;;;;;;;;;;5035289;28;19917;-72
2022/05/11 01:16:07;;;;;;;;;;;;;;;;;;5035266;28;19927;-72
2022/05/11 01:18:34;;;;;;;;;;;;;;;;;;5033861;28;19917;-72
2022/05/11 01:21:00;;;;;;;;;;;;;;;;;;5033136;28;19921;-72
2022/05/11 01:23:26;;;;;;;;;;;;;;;;;;5034719;28;19943;-72
2022/05/11 01:25:54;;;;;;;;;;;;;;;;;;5040948;28;19923;-72
2022/05/11 01:28:20;;;;;;;;;;;;;;;;;;5054200;28;20363;-72
2022/05/11 01:30:48;;;;;;;;;;;;;;;;;;5054694;28;19917;-72
2022/05/11 01:33:14;;;;;;;;;;;;;;;;;;5036593;28;19921;-72
2022/05/11 01:35:40;;;;;;;;;;;;;;;;;;5036192;28;19916;-72
2022/05/11 01:38:06;;;;;;;;;;;;;;;;;;5055037;28;19947;-72
2022/05/11 01:40:32;;;;;;;;;;;;;;;;;;5054958;28;19921;-72
2022/05/11 01:42:58;;;;;;;;;;;;;;;;;;5053972;28;19920;-72
2022/05/11 01:45:24;;;;;;;;;;;;;;;;;;5054756;28;19916;-72
2022/05/11 01:47:50;;;;;;;;;;;;;;;;;;5054786;28;20032;-72
2022/05/11 01:50:16;;;;;;;;;;;;;;;;;;5053786;28;20055;-72
2022/05/11 01:52:42;;;;;;;;;;;;;;;;;;5054308;28;19917;-72
2022/05/11 01:55:08;;;;;;;;;;;;;;;;;;5036661;28;19924;-72
2022/05/11 01:57:35;;;;;;;;;;;;;;;;;;5035833;28;20283;-72
2022/05/11 02:00:01;;;;;;;;;;;;;;;;;;5036399;28;19925;-72
2022/05/11 02:02:27;;;;;;;;;;;;;;;;;;5036361;28;19923;-72
2022/05/11 02:07:50;;;;;;;;;;;;;;;;;;5054412;28;20358;-72
2022/05/11 02:10:16;;;;;;;;;;;;;;;;;;5054296;28;19916;-71
2022/05/11 02:12:42;;;;;;;;;;;;;;;;;;5018981;28;19923;-72
2022/05/11 02:15:08;;;;;;;;;;;;;;;;;;5054151;28;20274;-72
2022/05/11 02:17:34;;;;;;;;;;;;;;;;;;5036085;28;19917;-72
2022/05/11 02:20:00;;;;;;;;;;;;;;;;;;5035620;28;20018;-72
2022/05/11 02:22:26;;;;;;;;;;;;;;;;;;5053999;28;19917;-72
2022/05/11 02:24:52;;;;;;;;;;;;;;;;;;5054125;28;19990;-72
2022/05/11 02:27:18;;;;;;;;;;;;;;;;;;5035488;28;20001;-72
2022/05/11 02:29:44;;;;;;;;;;;;;;;;;;5033741;28;19939;-72
2022/05/11 02:32:09;;;;;;;;;;;;;;;;;;5034284;28;19944;-72
2022/05/11 02:37:20;;;;;;;;;;;;;;;;;;5015926;28;20679;-72
2022/05/11 02:39:48;;;;;;;;;;;;;;;;;;5033591;28;19957;-72
2022/05/11 02:42:14;;;;;;;;;;;;;;;;;;5015002;28;19916;-72
2022/05/11 02:44:40;;;;;;;;;;;;;;;;;;5033634;28;19917;-72
2022/05/11 02:47:06;;;;;;;;;;;;;;;;;;5032249;28;19917;-72
2022/05/11 02:49:32;;;;;;;;;;;;;;;;;;5014873;28;19917;-72
2022/05/11 02:51:59;;;;;;;;;;;;;;;;;;5033629;28;20129;-72
2022/05/11 02:54:25;;;;;;;;;;;;;;;;;;5015783;28;19917;-72
2022/05/11 02:56:52;;;;;;;;;;;;;;;;;;5031587;28;20075;-72
2022/05/11 02:59:19;;;;;;;;;;;;;;;;;;5031733;28;19925;-72
2022/05/11 03:01:45;;;;;;;;;;;;;;;;;;5032210;28;19917;-71
2022/05/11 03:04:12;;;;;;;;;;;;;;;;;;5033087;28;19970;-71
2022/05/11 03:06:38;;;;;;;;;;;;;;;;;;5015836;28;19924;-71
2022/05/11 03:09:04;;;;;;;;;;;;;;;;;;5033327;28;19917;-71
2022/05/11 03:11:31;;;;;;;;;;;;;;;;;;5031470;28;19917;-71
2022/05/11 03:13:57;;;;;;;;;;;;;;;;;;5031267;28;19923;-71
2022/05/11 03:16:23;;;;;;;;;;;;;;;;;;5031557;28;20015;-71
2022/05/11 03:18:49;;;;;;;;;;;;;;;;;;5014692;28;19999;-71
2022/05/11 03:21:15;;;;;;;;;;;;;;;;;;5031882;28;19995;-71
2022/05/11 03:23:42;;;;;;;;;;;;;;;;;;5032797;28;19921;-71
2022/05/11 03:26:08;;;;;;;;;;;;;;;;;;5034797;28;19978;-71
2022/05/11 03:28:34;;;;;;;;;;;;;;;;;;5034712;28;20347;-71
2022/05/11 03:31:00;;;;;;;;;;;;;;;;;;5052810;28;19923;-71
2022/05/11 03:36:10;;;;;;;;;;;;;;;;;;5034778;28;20322;-71
2022/05/11 03:38:36;;;;;;;;;;;;;;;;;;5034717;28;19921;-71
2022/05/11 03:41:02;;;;;;;;;;;;;;;;;;5051817;28;19921;-71
2022/05/11 03:43:29;;;;;;;;;;;;;;;;;;5034702;28;19927;-71
2022/05/11 03:45:55;;;;;;;;;;;;;;;;;;5052621;28;19924;-71
2022/05/11 03:48:22;;;;;;;;;;;;;;;;;;5034212;28;20294;-72
2022/05/11 03:50:48;;;;;;;;;;;;;;;;;;5018071;28;19917;-72
2022/05/11 03:53:14;;;;;;;;;;;;;;;;;;5052571;28;19917;-72
2022/05/11 03:55:40;;;;;;;;;;;;;;;;;;5034239;28;19916;-72
2022/05/11 03:58:06;;;;;;;;;;;;;;;;;;5034442;28;19916;-72
2022/05/11 04:00:32;;;;;;;;;;;;;;;;;;5034573;28;19927;-72
2022/05/11 04:02:58;;;;;;;;;;;;;;;;;;5033824;28;19917;-72
2022/05/11 04:05:24;;;;;;;;;;;;;;;;;;5052672;28;19916;-72
2022/05/11 04:07:50;;;;;;;;;;;;;;;;;;5034480;28;20007;-72
2022/05/11 04:10:16;;;;;;;;;;;;;;;;;;5051967;28;19999;-72
2022/05/11 04:12:42;;;;;;;;;;;;;;;;;;5052672;28;19917;-72
2022/05/11 04:15:08;;;;;;;;;;;;;;;;;;5034327;28;19923;-72
2022/05/11 04:17:34;;;;;;;;;;;;;;;;;;5033571;28;19917;-72
2022/05/11 04:20:00;;;;;;;;;;;;;;;;;;5034208;28;19921;-72
2022/05/11 04:22:26;;;;;;;;;;;;;;;;;;5033978;28;19928;-72
2022/05/11 04:24:52;;;;;;;;;;;;;;;;;;5033448;28;19917;-72
2022/05/11 04:27:19;;;;;;;;;;;;;;;;;;5036007;28;19963;-72
2022/05/11 04:29:45;;;;;;;;;;;;;;;;;;5035704;28;19971;-71
2022/05/11 04:32:11;;;;;;;;;;;;;;;;;;5034351;28;19956;-71
2022/05/11 04:34:37;;;;;;;;;;;;;;;;;;5035918;28;20386;-71
2022/05/11 04:37:03;;;;;;;;;;;;;;;;;;5035814;28;19917;-71
2022/05/11 04:39:30;;;;;;;;;;;;;;;;;;5017388;28;19990;-71
2022/05/11 04:41:56;;;;;;;;;;;;;;;;;;5018300;28;19940;-71
2022/05/11 04:44:22;;;;;;;;;;;;;;;;;;5036085;28;19917;-71
2022/05/11 04:46:49;;;;;;;;;;;;;;;;;;5034841;28;19930;-71
2022/05/11 04:49:23;;;;;;;;;;;;;;;;;;5035858;28;19924;-71
2022/05/11 04:51:50;;;;;;;;;;;;;;;;;;5017817;28;19928;-71
2022/05/11 04:54:16;;;;;;;;;;;;;;;;;;5017592;28;19923;-71
2022/05/11 04:56:42;;;;;;;;;;;;;;;;;;5035919;28;19917;-71
2022/05/11 04:59:08;;;;;;;;;;;;;;;;;;5035618;28;19921;-71
2022/05/11 05:01:35;;;;;;;;;;;;;;;;;;5033932;28;19917;-71
2022/05/11 05:04:02;;;;;;;;;;;;;;;;;;5035385;28;19920;-72
2022/05/11 05:06:32;;;;;;;;;;;;;;;;;;5034183;28;19959;-72
2022/05/11 05:09:00;;;;;;;;;;;;;;;;;;5034352;28;19921;-72
2022/05/11 05:11:26;;;;;;;;;;;;;;;;;;5033833;28;19917;-71
2022/05/11 05:13:52;;;;;;;;;;;;;;;;;;5034057;28;19964;-71
2022/05/11 05:16:18;;;;;;;;;;;;;;;;;;5033090;28;19917;-71
2022/05/11 05:18:44;;;;;;;;;;;;;;;;;;5035183;28;19917;-71
2022/05/11 05:21:11;;;;;;;;;;;;;;;;;;5033759;28;19921;-71
2022/05/11 05:23:37;;;;;;;;;;;;;;;;;;5034102;28;19921;-71
2022/05/11 05:26:03;;;;;;;;;;;;;;;;;;5036576;28;19923;-71
2022/05/11 05:31:15;;;;;;;;;;;;;;;;;;5053773;28;20256;-71
2022/05/11 05:33:41;;;;;;;;;;;;;;;;;;5054716;28;20418;-71
2022/05/11 05:36:06;;;;;;;;;;;;;;;;;;5054524;28;19996;-71
2022/05/11 05:38:32;;;;;;;;;;;;;;;;;;5053652;28;19948;-71
2022/05/11 05:40:58;;;;;;;;;;;;;;;;;;5036351;28;19978;-71
2022/05/11 05:43:25;;;;;;;;;;;;;;;;;;5054349;28;19963;-71
2022/05/11 05:45:52;;;;;;;;;;;;;;;;;;5035771;28;19920;-71
2022/05/11 05:48:18;;;;;;;;;;;;;;;;;;5047207;28;20387;-72
2022/05/11 05:50:44;;;;;;;;;;;;;;;;;;5018373;28;19917;-71
2022/05/11 05:53:10;;;;;;;;;;;;;;;;;;5054399;28;19917;-71
2022/05/11 05:55:36;;;;;;;;;;;;;;;;;;5053671;28;19924;-72
2022/05/11 05:58:03;;;;;;;;;;;;;;;;;;5035476;28;19916;-71
2022/05/11 06:00:29;;;;;;;;;;;;;;;;;;5023275;28;20427;-70
2022/05/11 06:02:55;;;;;;;;;;;;;;;;;;5033593;28;20090;-71
2022/05/11 06:05:21;;;;;;;;;;;;;;;;;;5033046;28;19975;-71
2022/05/11 06:07:47;;;;;;;;;;;;;;;;;;5052161;28;20731;-72
2022/05/11 06:10:13;;;;;;;;;;;;;;;;;;5035112;28;20003;-72
2022/05/11 06:12:39;;;;;;;;;;;;;;;;;;5034916;28;19920;-72
2022/05/11 06:15:05;;;;;;;;;;;;;;;;;;5018144;28;19994;-72
2022/05/11 06:17:32;;;;;;;;;;;;;;;;;;5028668;28;20307;-72
2022/05/11 06:19:58;;;;;;;;;;;;;;;;;;5045757;28;19928;-72
2022/05/11 06:22:25;;;;;;;;;;;;;;;;;;5027863;28;19916;-72
2022/05/11 06:24:51;;;;;;;;;;;;;;;;;;5045792;28;20012;-71
2022/05/11 06:27:17;;;;;;;;;;;;;;;;;;5037201;28;20407;-70
2022/05/11 06:29:43;;;;;;;;;;;;;;;;;;5016390;28;19925;-70
2022/05/11 06:32:09;;;;;;;;;;;;;;;;;;5049351;28;20283;-70
2022/05/11 06:34:35;;;;;;;;;;;;;;;;;;5005024;28;19929;-70
2022/05/11 06:37:03;;;;;;;;;;;;;;;;;;4996537;28;19943;-69
2022/05/11 06:39:32;;;;;;;;;;;;;;;;;;5035455;28;20294;-70
2022/05/11 06:41:58;;;;;;;;;;;;;;;;;;5016236;28;19917;-70
2022/05/11 06:44:26;;;;;;;;;;;;;;;;;;5030965;28;20021;-70
2022/05/11 06:46:52;;;;;;;;;;;;;;;;;;5036182;28;19924;-70
2022/05/11 06:49:19;;;;;;;;;;;;;;;;;;5010380;28;19917;-70
2022/05/11 06:51:45;;;;;;;;;;;;;;;;;;5016663;28;19921;-70
2022/05/11 06:59:40;;;;;;;;;;;;;;;;;;5027893;28;21105;-71
2022/05/11 07:02:06;;;;;;;;;;;;;;;;;;5008785;28;20345;-70
2022/05/11 07:04:37;;;;;;;;;;;;;;;;;;5013989;28;19917;-70
2022/05/11 07:07:03;;;;;;;;;;;;;;;;;;5030412;28;19949;-69
2022/05/11 07:09:32;;;;;;;;;;;;;;;;;;5014525;28;20016;-64
2022/05/11 07:14:43;;;;;;;;;;;;;;;;;;5028084;28;20272;-64
2022/05/11 07:17:09;;;;;;;;;;;;;;;;;;5026219;28;19921;-65
2022/05/11 07:19:36;;;;;;;;;;;;;;;;;;5028213;28;19944;-65
2022/05/11 07:22:02;;;;;;;;;;;;;;;;;;5038977;28;19928;-65
2022/05/11 07:24:28;;;;;;;;;;;;;;;;;;5034727;28;19925;-65
2022/05/11 07:26:54;;;;;;;;;;;;;;;;;;5033974;28;19920;-65
2022/05/11 07:29:21;;;;;;;;;;;;;;;;;;5025933;28;19927;-65
2022/05/11 07:31:47;;;;;;;;;;;;;;;;;;5030980;28;20370;-65
2022/05/11 07:34:13;;;;;;;;;;;;;;;;;;5031415;28;19916;-65
2022/05/11 07:36:39;;;;;;;;;;;;;;;;;;5035173;28;20015;-65
2022/05/11 07:39:05;;;;;;;;;;;;;;;;;;5033794;28;19928;-65
2022/05/11 07:41:31;;;;;;;;;;;;;;;;;;5038816;28;19928;-65
2022/05/11 07:43:57;;;;;;;;;;;;;;;;;;5029929;28;20039;-65
2022/05/11 07:46:24;;;;;;;;;;;;;;;;;;5035355;28;19928;-65
2022/05/11 07:48:50;;;;;;;;;;;;;;;;;;5034589;28;20010;-65
2022/05/11 07:51:16;;;;;;;;;;;;;;;;;;5029766;28;20031;-65
2022/05/11 07:53:44;;;;;;;;;;;;;;;;;;5034641;28;19995;-64
2022/05/11 08:01:39;;;;;;;;;;;;;;;;;;5042125;28;20325;-64
2022/05/11 08:04:05;;;;;;;;;;;;;;;;;;5051843;28;19924;-64
2022/05/11 08:06:31;;;;;;;;;;;;;;;;;;5020641;28;19979;-64
2022/05/11 08:08:57;;;;;;;;;;;;;;;;;;5033228;28;19921;-63
2022/05/11 08:11:23;;;;;;;;;;;;;;;;;;5034328;28;19921;-63
2022/05/11 08:13:49;;;;;;;;;;;;;;;;;;5025043;28;19963;-63
2022/05/11 08:16:15;;;;;;;;;;;;;;;;;;5043890;28;19940;-63
2022/05/11 08:18:41;;;;;;;;;;;;;;;;;;5041012;28;20032;-63
2022/05/11 08:21:08;;;;;;;;;;;;;;;;;;5043405;28;20220;-63
2022/05/11 08:23:34;;;;;;;;;;;;;;;;;;5029893;28;19925;-63
2022/05/11 08:26:00;;;;;;;;;;;;;;;;;;5041752;28;19971;-63
2022/05/11 08:28:26;;;;;;;;;;;;;;;;;;5039008;28;20436;-63
2022/05/11 08:33:38;;;;;;;;;;;;;;;;;;5037367;28;20287;-63
2022/05/11 08:36:04;;;;;;;;;;;;;;;;;;5046786;28;19963;-63
2022/05/11 08:38:30;;;;;;;;;;;;;;;;;;5036077;28;20499;-63
2022/05/11 08:40:56;;;;;;;;;;;;;;;;;;5044985;28;19929;-63
2022/05/11 08:43:22;;;;;;;;;;;;;;;;;;5041170;28;19921;-63
2022/05/11 08:45:48;;;;;;;;;;;;;;;;;;5043087;28;19960;-63
2022/05/11 08:48:14;;;;;;;;;;;;;;;;;;5039616;28;19963;-63
2022/05/11 08:50:40;;;;;;;;;;;;;;;;;;5041779;28;19920;-63
2022/05/11 08:53:06;;;;;;;;;;;;;;;;;;5037624;28;19947;-63
2022/05/11 08:55:32;;;;;;;;;;;;;;;;;;5032655;28;20311;-63
2022/05/11 08:57:58;;;;;;;;;;;;;;;;;;5040524;28;20034;-63
2022/05/11 09:00:24;;;;;;;;;;;;;;;;;;5036383;28;19932;-63
2022/05/11 09:02:50;;;;;;;;;;;;;;;;;;5050149;28;20414;-64
2022/05/11 09:05:16;;;;;;;;;;;;;;;;;;5046665;28;19921;-64
2022/05/11 09:07:42;;;;;;;;;;;;;;;;;;5045933;28;19917;-64
2022/05/11 09:10:08;;;;;;;;;;;;;;;;;;5051874;28;19920;-63
2022/05/11 09:12:34;;;;;;;;;;;;;;;;;;5047924;28;19978;-64
2022/05/11 09:15:00;;;;;;;;;;;;;;;;;;5025986;28;19917;-64
2022/05/11 09:17:26;;;;;;;;;;;;;;;;;;5042650;28;19923;-64
2022/05/11 09:19:52;;;;;;;;;;;;;;;;;;5023978;28;19932;-64
2022/05/11 09:22:18;;;;;;;;;;;;;;;;;;5048066;28;19979;-63
2022/05/11 09:24:44;;;;;;;;;;;;;;;;;;5036791;28;19920;-63
2022/05/11 09:27:10;;;;;;;;;;;;;;;;;;5041965;28;19939;-63
2022/05/11 09:29:37;;;;;;;;;;;;;;;;;;5038021;28;20362;-63
2022/05/11 09:32:03;;;;;;;;;;;;;;;;;;5034836;28;19917;-63
2022/05/11 09:34:29;;;;;;;;;;;;;;;;;;5027312;28;20024;-64
2022/05/11 09:36:55;;;;;;;;;;;;;;;;;;5039715;28;20003;-63
2022/05/11 09:39:21;;;;;;;;;;;;;;;;;;5045091;28;20423;-63
2022/05/11 09:41:51;;;;;;;;;;;;;;;;;;5034177;28;19996;-63
2022/05/11 09:44:17;;;;;;;;;;;;;;;;;;5044109;28;19925;-64
2022/05/11 09:46:43;;;;;;;;;;;;;;;;;;5036391;28;19924;-64
2022/05/11 09:49:09;;;;;;;;;;;;;;;;;;5038255;28;19921;-64
2022/05/11 09:51:35;;;;;;;;;;;;;;;;;;5035955;28;19947;-64
2022/05/11 09:54:02;;;;;;;;;;;;;;;;;;5023556;28;20023;-64
2022/05/11 09:56:28;;;;;;;;;;;;;;;;;;5036069;28;19925;-64
2022/05/11 09:58:54;;;;;;;;;;;;;;;;;;5034239;28;20456;-64
2022/05/11 10:01:20;;;;;;;;;;;;;;;;;;5044413;28;20033;-64
2022/05/11 10:03:46;;;;;;;;;;;;;;;;;;5040440;28;19944;-64
2022/05/11 10:06:12;;;;;;;;;;;;;;;;;;5034873;28;19920;-63
2022/05/11 10:08:38;;;;;;;;;;;;;;;;;;5034511;28;20451;-63
2022/05/11 10:11:04;;;;;;;;;;;;;;;;;;5030718;28;19927;-63
2022/05/11 10:13:30;;;;;;;;;;;;;;;;;;5031606;28;19924;-63
2022/05/11 10:24:10;;;;;;;;;;;;;;;;;;5034767;28;20345;-63
2022/05/11 10:26:36;;;;;;;;;;;;;;;;;;5035776;28;19917;-63
2022/05/11 10:29:03;;;;;;;;;;;;;;;;;;5035842;28;19964;-64
2022/05/11 10:31:30;;;;;;;;;;;;;;;;;;5030818;28;19921;-63
2022/05/11 10:33:57;;;;;;;;;;;;;;;;;;5027915;28;19956;-64
2022/05/11 10:36:24;;;;;;;;;;;;;;;;;;5031555;28;19920;-64
2022/05/11 10:38:50;;;;;;;;;;;;;;;;;;5043053;28;19936;-64
2022/05/11 10:41:16;;;;;;;;;;;;;;;;;;5043750;28;20023;-64
2022/05/11 10:43:42;;;;;;;;;;;;;;;;;;5030402;28;19925;-65
2022/05/11 10:46:08;;;;;;;;;;;;;;;;;;5037006;28;19916;-65
2022/05/11 10:48:35;;;;;;;;;;;;;;;;;;5025829;28;19962;-65
2022/05/11 10:51:01;;;;;;;;;;;;;;;;;;5031595;28;19921;-64
2022/05/11 10:53:27;;;;;;;;;;;;;;;;;;5033911;28;19917;-64
2022/05/11 10:55:53;;;;;;;;;;;;;;;;;;5017322;28;19917;-64
2022/05/11 10:58:19;;;;;;;;;;;;;;;;;;5039777;28;19920;-64
2022/05/11 11:00:45;;;;;;;;;;;;;;;;;;5029130;28;19921;-64
2022/05/11 11:03:11;;;;;;;;;;;;;;;;;;5052234;28;19978;-64
2022/05/11 11:05:37;;;;;;;;;;;;;;;;;;5050897;28;19939;-64
2022/05/11 11:08:03;;;;;;;;;;;;;;;;;;5051797;28;19916;-64
2022/05/11 11:10:29;;;;;;;;;;;;;;;;;;5051589;28;19917;-64
2022/05/11 11:12:55;;;;;;;;;;;;;;;;;;5051080;28;19928;-64
2022/05/11 11:15:20;;;;;;;;;;;;;;;;;;5051690;28;19951;-64
2022/05/11 11:17:46;;;;;;;;;;;;;;;;;;5044681;28;19916;-64
2022/05/11 11:20:12;;;;;;;;;;;;;;;;;;5030711;28;19971;-64
2022/05/11 11:22:38;;;;;;;;;;;;;;;;;;5051270;28;19964;-64
2022/05/11 11:25:04;;;;;;;;;;;;;;;;;;5051215;28;19916;-64
2022/05/11 11:27:30;;;;;;;;;;;;;;;;;;5040168;28;19923;-64
2022/05/11 11:29:56;;;;;;;;;;;;;;;;;;5013765;28;19916;-64
2022/05/11 11:32:22;;;;;;;;;;;;;;;;;;5048290;28;19978;-64
2022/05/11 11:34:48;;;;;;;;;;;;;;;;;;5020953;28;19921;-64
2022/05/11 11:37:14;;;;;;;;;;;;;;;;;;5039871;28;20299;-64
2022/05/11 11:39:40;;;;;;;;;;;;;;;;;;5040308;28;19924;-64
2022/05/11 11:42:06;;;;;;;;;;;;;;;;;;5041449;28;19955;-64
2022/05/11 11:44:32;;;;;;;;;;;;;;;;;;5038493;28;19917;-64
2022/05/11 11:46:58;;;;;;;;;;;;;;;;;;5041341;28;19929;-63
2022/05/11 11:49:27;;;;;;;;;;;;;;;;;;5040428;28;19917;-63
2022/05/11 11:51:54;;;;;;;;;;;;;;;;;;5039620;28;19917;-64
2022/05/11 11:54:20;;;;;;;;;;;;;;;;;;5038897;28;19921;-63
2022/05/11 11:56:46;;;;;;;;;;;;;;;;;;5030733;28;20035;-64
2022/05/11 11:59:12;;;;;;;;;;;;;;;;;;5039736;28;20411;-63
2022/05/11 12:01:38;;;;;;;;;;;;;;;;;;5042701;28;20051;-64
2022/05/11 12:04:04;;;;;;;;;;;;;;;;;;5046416;28;19966;-64
2022/05/11 12:15:02;;;;;;;;;;;;;;;;;;5034098;28;19917;-63
2022/05/11 12:17:28;;;;;;;;;;;;;;;;;;5050084;28;19917;-63
2022/05/11 12:19:54;;;;;;;;;;;;;;;;;;5048981;28;19971;-63
2022/05/11 12:22:22;;;;;;;;;;;;;;;;;;5032357;28;19917;-63
2022/05/11 12:24:48;;;;;;;;;;;;;;;;;;5033851;28;19924;-64
2022/05/11 12:27:15;;;;;;;;;;;;;;;;;;5046895;28;20343;-63
2022/05/11 12:29:58;;;;;;;;;;;;;;;;;;5035795;28;20356;-64
2022/05/11 12:32:24;;;;;;;;;;;;;;;;;;5036421;28;19920;-64
2022/05/11 12:34:50;;;;;;;;;;;;;;;;;;5038472;28;19924;-64
2022/05/11 12:37:16;;;;;;;;;;;;;;;;;;5045597;28;19916;-64
2022/05/11 12:39:41;;;;;;;;;;;;;;;;;;5048375;28;19920;-64
2022/05/11 12:42:07;;;;;;;;;;;;;;;;;;5050361;28;19916;-64
2022/05/11 12:44:33;;;;;;;;;;;;;;;;;;5036068;28;19939;-64
2022/05/11 12:46:59;;;;;;;;;;;;;;;;;;5044448;28;19929;-64
2022/05/11 12:49:25;;;;;;;;;;;;;;;;;;5043487;28;19920;-64
2022/05/11 12:51:52;;;;;;;;;;;;;;;;;;5047354;28;20002;-64
2022/05/11 12:54:18;;;;;;;;;;;;;;;;;;5047685;28;20003;-64
2022/05/11 12:56:44;;;;;;;;;;;;;;;;;;5043196;28;20003;-64
2022/05/11 12:59:10;;;;;;;;;;;;;;;;;;5053587;28;19928;-64
2022/05/11 13:01:36;;;;;;;;;;;;;;;;;;5043152;28;20595;-64
2022/05/11 13:04:02;;;;;;;;;;;;;;;;;;5052884;28;19917;-64
2022/05/11 13:06:28;;;;;;;;;;;;;;;;;;5053496;28;19917;-64
2022/05/11 13:08:54;;;;;;;;;;;;;;;;;;5053225;28;19926;-64
2022/05/11 13:11:20;;;;;;;;;;;;;;;;;;5038688;28;19966;-64
2022/05/11 13:13:46;;;;;;;;;;;;;;;;;;5036599;28;19924;-64
2022/05/11 13:16:12;;;;;;;;;;;;;;;;;;5046863;28;20355;-64
2022/05/11 13:18:38;;;;;;;;;;;;;;;;;;5052936;28;19927;-64
2022/05/11 13:21:07;;;;;;;;;;;;;;;;;;5050464;28;19986;-64
2022/05/11 13:23:33;;;;;;;;;;;;;;;;;;5048697;28;19921;-64
2022/05/11 13:25:59;;;;;;;;;;;;;;;;;;5049226;28;20235;-64
2022/05/11 13:28:25;;;;;;;;;;;;;;;;;;5037838;28;19917;-64
2022/05/11 13:30:51;;;;;;;;;;;;;;;;;;5046175;28;20011;-64
2022/05/11 13:33:17;;;;;;;;;;;;;;;;;;5045713;28;20016;-64
2022/05/11 13:35:43;;;;;;;;;;;;;;;;;;5023267;28;19917;-64
2022/05/11 13:38:12;;;;;;;;;;;;;;;;;;5045245;28;19921;-63
2022/05/11 13:40:38;;;;;;;;;;;;;;;;;;5040541;28;19921;-63
2022/05/11 13:43:04;;;;;;;;;;;;;;;;;;5022177;28;20322;-63
2022/05/11 13:45:30;;;;;;;;;;;;;;;;;;5046422;28;19928;-63
2022/05/11 13:48:15;;;;;;;;;;;;;;;;;;5038795;28;19917;-63
2022/05/11 13:50:41;;;;;;;;;;;;;;;;;;5048695;28;19921;-63
2022/05/11 13:53:09;;;;;;;;;;;;;;;;;;5049285;28;20009;-63
2022/05/11 13:55:35;;;;;;;;;;;;;;;;;;5052791;28;19923;-63
2022/05/11 13:58:01;;;;;;;;;;;;;;;;;;5052809;28;20643;-63
2022/05/11 14:00:27;;;;;;;;;;;;;;;;;;5053172;28;19920;-64
2022/05/11 14:02:53;;;;;;;;;;;;;;;;;;5051750;28;19948;-64
2022/05/11 14:05:19;;;;;;;;;;;;;;;;;;5053210;28;20302;-64
2022/05/11 14:07:45;;;;;;;;;;;;;;;;;;5052771;28;19923;-64
2022/05/11 14:10:11;;;;;;;;;;;;;;;;;;5051788;28;19967;-64
2022/05/11 14:12:37;;;;;;;;;;;;;;;;;;5052828;28;19967;-64
2022/05/11 14:15:03;;;;;;;;;;;;;;;;;;5036498;28;20024;-64
2022/05/11 14:17:29;;;;;;;;;;;;;;;;;;5052084;28;19956;-64
2022/05/11 14:19:55;;;;;;;;;;;;;;;;;;5034975;28;19963;-64
2022/05/11 14:22:21;;;;;;;;;;;;;;;;;;5049612;28;20039;-64
2022/05/11 14:24:47;;;;;;;;;;;;;;;;;;5042263;28;19917;-63
2022/05/11 14:27:17;;;;;;;;;;;;;;;;;;5044253;28;20390;-63
2022/05/11 14:29:42;;;;;;;;;;;;;;;;;;5042127;28;20004;-64
2022/05/11 14:32:08;;;;;;;;;;;;;;;;;;5043234;28;20007;-64
2022/05/11 14:34:34;;;;;;;;;;;;;;;;;;5042321;28;19956;-64
2022/05/11 14:37:00;;;;;;;;;;;;;;;;;;5049297;28;19972;-64
2022/05/11 14:39:27;;;;;;;;;;;;;;;;;;5051055;28;20023;-64
2022/05/11 14:41:54;;;;;;;;;;;;;;;;;;5044017;28;19924;-64
2022/05/11 14:44:21;;;;;;;;;;;;;;;;;;5043268;28;19917;-64
2022/05/11 14:46:48;;;;;;;;;;;;;;;;;;5039441;28;19938;-64
2022/05/11 14:49:13;;;;;;;;;;;;;;;;;;5043606;28;19924;-64
2022/05/11 14:51:41;;;;;;;;;;;;;;;;;;5042557;28;19925;-64
2022/05/11 14:54:07;;;;;;;;;;;;;;;;;;5039953;28;19963;-64
2022/05/11 14:56:34;;;;;;;;;;;;;;;;;;5048553;28;19994;-64
2022/05/11 15:02:06;;;;;;;;;;;;;;;;;;5030900;28;20310;-64
2022/05/11 15:04:31;;;;;;;;;;;;;;;;;;5043509;28;19968;-64
2022/05/11 15:06:57;;;;;;;;;;;;;;;;;;5052104;28;19917;-64
2022/05/11 15:09:25;;;;;;;;;;;;;;;;;;5051149;28;19924;-64
2022/05/11 15:14:36;;;;;;;;;;;;;;;;;;5030487;28;20272;-64
2022/05/11 15:17:02;;;;;;;;;;;;;;;;;;5047020;28;19927;-70
2022/05/11 15:19:28;;;;;;;;;;;;;;;;;;5022074;28;19925;-70
2022/05/11 15:21:54;;;;;;;;;;;;;;;;;;5032184;28;19917;-70
2022/05/11 15:24:20;;;;;;;;;;;;;;;;;;5049970;28;19928;-70
2022/05/11 15:26:47;;;;;;;;;;;;;;;;;;5048869;28;19978;-69
2022/05/11 15:29:13;;;;;;;;;;;;;;;;;;5048394;28;19917;-70
2022/05/11 15:31:39;;;;;;;;;;;;;;;;;;5051417;28;20236;-71
2022/05/11 15:34:06;;;;;;;;;;;;;;;;;;5051982;28;19924;-71
2022/05/11 15:36:32;;;;;;;;;;;;;;;;;;5033851;28;20011;-71
2022/05/11 15:38:59;;;;;;;;;;;;;;;;;;5051364;28;20007;-71
2022/05/11 15:41:25;;;;;;;;;;;;;;;;;;5051696;28;19927;-70
2022/05/11 15:43:51;;;;;;;;;;;;;;;;;;5020310;28;19920;-70
2022/05/11 15:46:17;;;;;;;;;;;;;;;;;;5051180;28;19916;-70
2022/05/11 15:48:43;;;;;;;;;;;;;;;;;;5051517;28;19924;-70
2022/05/11 15:51:09;;;;;;;;;;;;;;;;;;5051874;28;19916;-70
2022/05/11 15:53:36;;;;;;;;;;;;;;;;;;5033118;28;19916;-70
2022/05/11 15:56:02;;;;;;;;;;;;;;;;;;5051381;28;19917;-70
2022/05/11 15:58:28;;;;;;;;;;;;;;;;;;5048558;28;19921;-70
2022/05/11 16:00:53;;;;;;;;;;;;;;;;;;5026504;28;19928;-70
2022/05/11 16:03:20;;;;;;;;;;;;;;;;;;5016920;28;19990;-70
2022/05/11 16:05:47;;;;;;;;;;;;;;;;;;5026329;28;20441;-70
2022/05/11 16:08:13;;;;;;;;;;;;;;;;;;5038452;28;19920;-70
2022/05/11 16:10:39;;;;;;;;;;;;;;;;;;5033475;28;20162;-70
2022/05/11 16:13:05;;;;;;;;;;;;;;;;;;5028883;28;19917;-70
2022/05/11 16:15:31;;;;;;;;;;;;;;;;;;5050578;28;19967;-70
2022/05/11 16:20:42;;;;;;;;;;;;;;;;;;5051333;28;20260;-70
2022/05/11 16:23:08;;;;;;;;;;;;;;;;;;5053826;28;20004;-70
2022/05/11 16:25:34;;;;;;;;;;;;;;;;;;5055215;28;19967;-70
2022/05/11 16:28:00;;;;;;;;;;;;;;;;;;5055262;28;19955;-70
2022/05/11 16:30:26;;;;;;;;;;;;;;;;;;5054609;28;19923;-70
2022/05/11 16:32:52;;;;;;;;;;;;;;;;;;5053907;28;19916;-70
2022/05/11 16:35:18;;;;;;;;;;;;;;;;;;5055043;28;19920;-70
2022/05/11 16:37:44;;;;;;;;;;;;;;;;;;5054448;28;19952;-70
2022/05/11 16:40:10;;;;;;;;;;;;;;;;;;5036765;28;19925;-70
2022/05/11 16:42:36;;;;;;;;;;;;;;;;;;5046714;28;19917;-70
2022/05/11 16:45:02;;;;;;;;;;;;;;;;;;5029498;28;19967;-70
2022/05/11 16:47:28;;;;;;;;;;;;;;;;;;5054755;28;19920;-70
2022/05/11 16:49:54;;;;;;;;;;;;;;;;;;5054637;28;19920;-70
2022/05/11 16:52:20;;;;;;;;;;;;;;;;;;5054286;28;20426;-70
2022/05/11 16:54:46;;;;;;;;;;;;;;;;;;5055003;28;19928;-70
2022/05/11 16:57:12;;;;;;;;;;;;;;;;;;5054809;28;19916;-70
2022/05/11 16:59:38;;;;;;;;;;;;;;;;;;5053355;28;19916;-70
2022/05/11 17:02:04;;;;;;;;;;;;;;;;;;5020215;28;19939;-70
2022/05/11 17:04:30;;;;;;;;;;;;;;;;;;5036350;28;19920;-69
2022/05/11 17:06:56;;;;;;;;;;;;;;;;;;5053935;28;19939;-69
2022/05/11 17:09:22;;;;;;;;;;;;;;;;;;5036324;28;19920;-69
2022/05/11 17:11:48;;;;;;;;;;;;;;;;;;5034920;28;19943;-69
2022/05/11 17:14:14;;;;;;;;;;;;;;;;;;5016082;28;19923;-69
2022/05/11 17:16:40;;;;;;;;;;;;;;;;;;5025965;28;20015;-67
2022/05/11 17:19:07;;;;;;;;;;;;;;;;;;5037103;28;19950;-68
2022/05/11 17:21:34;;;;;;;;;;;;;;;;;;5019349;28;19921;-68
2022/05/11 17:23:59;;;;;;;;;;;;;;;;;;5037306;28;19947;-68
2022/05/11 17:26:25;;;;;;;;;;;;;;;;;;5036664;28;19917;-68
2022/05/11 17:28:51;;;;;;;;;;;;;;;;;;5050335;28;19986;-69
2022/05/11 17:31:17;;;;;;;;;;;;;;;;;;5054397;28;19923;-68
2022/05/11 17:33:43;;;;;;;;;;;;;;;;;;5053575;28;19940;-69